Latest Weather Observations for Roseworthy

IDS60801

Issued at 8:01 pm CST Tuesday 22 August 2017 (issued every 30 minutes, with the page automatically refreshed every 10 minutes)

About weather observations | Map of weather stations | Latest weather observations for SA | Other Formats
Station Details ID: 023122 Name: ROSEWORTHY AWS Lat: -34.51 Lon: 138.68 Height: 65.0 m
Data from the previous 72 hours. | See also: Recent months at Roseworthy
Date/Time
CST
Temp
°C
App
Temp
°C
Dew
Point
°C
Rel
Hum
%
Delta-T
°C
Wind Press
QNH
hPa
Press
MSL
hPa
Rain since
9am
mm
Dir  Spd
km/h
Gust
km/h
Spd
kts
Gust
kts
22/08:00pm 9.8 6.9 8.1 89 0.8 N 13 13 7 7 1021.4 1021.5 0.0
22/07:30pm 8.6 6.1 6.6 87 0.9 N 9 11 5 6 1021.4 1021.5 0.0
22/07:00pm 9.4 6.3 7.3 87 1.0 N 13 13 7 7 1021.1 1021.2 0.0
22/06:30pm 10.3 8.2 8.1 86 1.1 NNW 9 11 5 6 1021.0 1021.1 0.0
22/06:00pm 11.1 9.4 8.3 83 1.4 NW 7 9 4 5 1020.9 1021.0 0.0
22/05:30pm 13.0 11.1 8.9 76 2.1 WNW 9 9 5 5 1021.0 1021.1 0.0
22/05:00pm 13.9 11.9 8.7 71 2.6 WNW 9 11 5 6 1021.0 1021.1 0.0
22/04:30pm 14.0 10.9 7.3 64 3.3 W 13 17 7 9 1020.9 1021.0 0.0
22/04:00pm 14.5 11.9 7.8 64 3.3 W 11 13 6 7 1020.8 1020.9 0.0
22/03:30pm 14.8 11.1 6.4 57 4.1 WSW 15 22 8 12 1020.4 1020.5 0.0
22/03:00pm 15.0 10.4 6.6 57 4.1 W 20 30 11 16 1020.2 1020.3 0.0
22/02:30pm 15.2 10.8 6.7 57 4.1 W 19 30 10 16 1020.3 1020.4 0.0
22/02:00pm 16.4 12.5 8.6 60 4.0 W 19 26 10 14 1020.3 1020.4 0.0
22/01:30pm 16.1 12.3 7.6 57 4.2 W 17 24 9 13 1020.4 1020.5 0.0
22/01:00pm 15.2 11.9 8.2 63 3.5 WNW 15 20 8 11 1020.9 1021.0 0.0
22/12:30pm 14.2 10.2 8.2 67 3.0 W 19 24 10 13 1021.2 1021.3 0.0
22/12:00pm 14.3 11.4 8.3 67 3.0 W 13 19 7 10 1021.5 1021.6 0.0
22/11:30am 14.2 10.1 8.8 70 2.7 WNW 20 26 11 14 1021.8 1021.9 0.0
22/11:00am 13.9 10.6 8.1 68 2.9 W 15 20 8 11 1022.0 1022.1 0.0
22/10:30am 14.1 11.8 9.1 72 2.5 NW 11 15 6 8 1022.1 1022.2 0.0
22/10:00am 12.9 11.1 7.8 71 2.5 NW 7 11 4 6 1022.2 1022.3 0.0
22/09:30am 12.5 11.0 9.1 80 1.7 N 7 11 4 6 1022.1 1022.2 0.0
22/09:00am 11.4 9.9 9.0 85 1.2 N 7 9 4 5 1022.0 1022.1 0.4
22/08:30am 10.6 10.0 8.9 89 0.8 WNW 2 7 1 4 1022.1 1022.2 0.4
22/08:00am 10.0 8.3 8.3 89 0.8 WNW 7 9 4 5 1021.9 1022.0 0.4
22/07:30am 9.7 7.5 8.0 89 0.8 SW 9 9 5 5 1021.5 1021.6 0.4
22/07:00am 9.5 7.3 7.9 90 0.8 W 9 11 5 6 1020.9 1021.0 0.4
22/06:30am 9.5 7.0 8.1 91 0.7 WSW 11 15 6 8 1020.5 1020.6 0.4
22/06:00am 9.3 7.2 8.2 93 0.5 W 9 11 5 6 1020.2 1020.3 0.4
22/05:30am 9.4 7.3 8.3 93 0.5 WNW 9 11 5 6 1019.9 1020.0 0.4
22/05:00am 9.3 7.2 8.2 93 0.5 NW 9 11 5 6 1019.5 1019.6 0.4
22/04:30am 9.1 6.9 8.0 93 0.5 NW 9 11 5 6 1019.3 1019.4 0.4
22/04:00am 9.0 6.8 7.9 93 0.5 NNW 9 11 5 6 1019.0 1019.1 0.4
22/03:30am 8.8 6.9 7.7 93 0.5 NNW 7 9 4 5 1018.8 1018.9 0.4
22/03:00am 8.7 6.8 7.6 93 0.5 N 7 9 4 5 1018.7 1018.8 0.4
22/02:30am 8.8 6.9 7.7 93 0.5 N 7 9 4 5 1018.6 1018.7 0.4
22/02:00am 8.9 8.4 7.8 93 0.5 CALM 0 0 0 0 1018.8 1018.9 0.4
22/01:30am 8.9 7.6 7.8 93 0.5 N 4 11 2 6 1019.0 1019.1 0.4
22/01:00am 9.2 6.7 8.1 93 0.5 NNW 11 13 6 7 1018.8 1018.9 0.4
22/12:30am 8.9 6.3 7.8 93 0.5 N 11 13 6 7 1019.0 1019.1 0.4
22/12:00am 8.7 6.1 7.6 93 0.5 N 11 15 6 8 1018.9 1019.0 0.4
 
Date/Time
CST
Temp
°C
App
Temp
°C
Dew
Point
°C
Rel
Hum
%
Delta-T
°C
Wind Press
QNH
hPa
Press
MSL
hPa
Rain since
9am
mm
Dir  Spd
km/h
Gust
km/h
Spd
kts
Gust
kts
21/11:30pm 8.7 6.1 7.6 93 0.5 N 11 13 6 7 1018.9 1019.0 0.4
21/11:00pm 8.1 6.1 7.0 93 0.5 N 7 9 4 5 1018.8 1018.9 0.4
21/10:30pm 7.8 5.3 6.6 92 0.6 N 9 11 5 6 1018.5 1018.6 0.4
21/10:00pm 7.1 3.7 5.9 92 0.5 N 13 13 7 7 1018.5 1018.6 0.4
21/09:30pm 6.2 2.6 4.8 91 0.6 N 13 15 7 8 1018.2 1018.2 0.4
21/09:00pm 6.8 3.3 5.6 92 0.5 NNW 13 15 7 8 1017.7 1017.7 0.4
21/08:30pm 5.7 3.1 4.2 90 0.6 NNW 7 13 4 7 1017.3 1017.3 0.4
21/08:00pm 5.7 3.9 3.5 86 0.9 WSW 2 7 1 4 1017.0 1017.0 0.4
21/07:30pm 8.5 6.3 6.1 85 1.1 SW 7 9 4 5 1016.7 1016.7 0.4
21/07:00pm 10.0 7.4 7.6 85 1.2 SW 11 15 6 8 1016.2 1016.2 0.4
21/06:30pm 9.3 6.1 6.9 85 1.1 WSW 13 17 7 9 1015.7 1015.7 0.4
21/06:00pm 10.1 6.6 7.0 81 1.5 SW 15 24 8 13 1014.9 1014.9 0.4
21/05:30pm 11.4 7.7 8.1 80 1.6 WSW 17 20 9 11 1014.4 1014.4 0.4
21/05:00pm 12.2 8.4 8.9 80 1.7 SW 19 26 10 14 1013.3 1013.4 0.4
21/04:30pm 12.8 8.5 9.3 79 1.8 SW 22 32 12 17 1012.8 1012.9 0.4
21/04:00pm 13.2 8.4 8.9 75 2.2 SSW 24 33 13 18 1012.1 1012.2 0.4
21/03:30pm 13.5 9.3 9.7 78 2.0 SW 22 30 12 16 1011.4 1011.5 0.2
21/03:00pm 14.0 10.9 10.4 79 1.9 SW 17 24 9 13 1011.0 1011.1 0.2
21/02:30pm 14.1 10.7 11.1 82 1.6 SSW 20 28 11 15 1010.4 1010.5 0.2
21/02:00pm 14.2 11.4 11.5 84 1.4 SSW 17 20 9 11 1009.8 1009.9 0.2
21/01:30pm 13.4 11.4 11.5 88 1.0 SSW 13 17 7 9 1009.3 1009.4 0.2
21/01:00pm 14.7 12.6 11.1 79 1.9 W 13 17 7 9 1009.0 1009.1 0.0
21/12:30pm 14.9 12.1 11.3 79 1.9 WNW 17 22 9 12 1008.9 1009.0 0.0
21/12:00pm 14.7 11.3 11.1 79 1.9 NW 20 28 11 15 1008.9 1009.0 0.0
21/11:30am 13.8 9.5 10.8 82 1.6 NNW 24 33 13 18 1008.9 1009.0 0.0
21/11:00am 12.8 7.5 9.8 82 1.5 NNW 28 35 15 19 1008.6 1008.7 0.0
21/10:30am 12.9 7.6 9.7 81 1.6 NNW 28 39 15 21 1008.5 1008.6 0.0
21/10:00am 12.1 6.7 9.5 84 1.3 NNW 28 35 15 19 1008.4 1008.5 0.0
21/09:30am 10.8 5.9 8.6 86 1.1 N 24 37 13 20 1008.3 1008.4 0.0
21/09:00am 9.8 5.4 7.4 85 1.1 N 20 30 11 16 1008.2 1008.3 14.4
21/08:30am 9.4 4.5 7.0 85 1.1 N 22 30 12 16 1007.8 1007.9 14.4
21/08:00am 8.8 4.2 6.4 85 1.1 N 20 28 11 15 1007.6 1007.7 14.4
21/07:30am 7.9 2.8 5.9 87 0.9 N 22 30 12 16 1007.5 1007.6 14.4
21/07:00am 8.3 2.3 5.2 81 1.4 N 26 35 14 19 1007.2 1007.3 14.2
21/06:30am 7.9 2.2 4.8 81 1.4 N 24 32 13 17 1007.0 1007.1 14.2
21/06:00am 7.7 1.6 4.7 81 1.3 NNE 26 32 14 17 1007.0 1007.1 14.2
21/05:30am 7.5 2.5 4.8 83 1.2 NNE 20 28 11 15 1007.0 1007.1 14.2
21/05:00am 7.5 2.7 4.5 81 1.3 N 19 26 10 14 1007.6 1007.7 13.0
21/04:30am 7.6 2.7 4.2 79 1.5 NNE 19 22 10 12 1007.4 1007.5 11.8
21/04:00am 8.2 3.0 3.7 73 1.9 N 20 26 11 14 1007.4 1007.5 11.0
21/03:30am 9.3 2.7 2.2 61 3.0 N 26 35 14 19 1007.4 1007.5 11.0
21/03:00am 9.0 1.3 2.3 63 2.8 NNE 32 43 17 23 1007.1 1007.2 11.0
21/02:30am 7.9 1.8 3.0 71 2.1 NE 24 33 13 18 1007.6 1007.7 11.0
21/02:00am 7.5 1.9 3.2 74 1.8 NE 22 30 12 16 1008.3 1008.4 11.0
21/01:30am 6.9 1.6 3.2 77 1.6 NE 20 28 11 15 1009.1 1009.2 11.0
21/01:00am 7.0 1.1 3.8 80 1.4 NE 24 32 13 17 1009.7 1009.8 11.0
21/12:30am 6.6 2.0 3.9 83 1.2 NE 17 20 9 11 1010.6 1010.7 11.0
21/12:00am 7.1 2.6 4.4 83 1.2 NE 17 24 9 13 1010.9 1011.0 11.0
 
Date/Time
CST
Temp
°C
App
Temp
°C
Dew
Point
°C
Rel
Hum
%
Delta-T
°C
Wind Press
QNH
hPa
Press
MSL
hPa
Rain since
9am
mm
Dir  Spd
km/h
Gust
km/h
Spd
kts
Gust
kts
20/11:30pm 7.2 2.7 4.0 80 1.4 NE 17 24 9 13 1011.3 1011.4 11.0
20/11:00pm 7.8 2.7 4.2 78 1.6 NE 20 28 11 15 1011.6 1011.7 11.0
20/10:30pm 8.0 2.2 4.4 78 1.6 NE 24 32 13 17 1012.3 1012.4 11.0
20/10:00pm 8.3 3.0 5.1 80 1.4 NNE 22 28 12 15 1013.0 1013.1 11.0
20/09:30pm 8.9 3.3 5.3 78 1.6 N 24 37 13 20 1013.9 1013.9 11.0
20/09:00pm 8.3 3.1 5.6 83 1.2 NE 22 28 12 15 1013.8 1013.8 11.0
20/08:30pm 8.2 2.7 5.7 84 1.1 NE 24 32 13 17 1013.8 1013.8 10.8
20/08:00pm 7.9 1.2 5.5 85 1.1 NE 30 37 16 20 1012.9 1013.0 10.8
20/07:30pm 7.8 2.7 6.1 89 0.8 NE 22 32 12 17 1014.7 1014.7 10.8
20/07:00pm 7.8 2.4 6.3 90 0.7 ENE 24 33 13 18 1014.4 1014.4 10.4
20/06:30pm 8.0 3.6 6.6 91 0.6 E 19 24 10 13 1014.8 1014.8 9.2
20/06:00pm 8.2 5.7 6.7 90 0.7 ESE 9 13 5 7 1015.9 1015.9 7.4
20/05:30pm 8.6 5.0 6.9 89 0.8 W 15 20 8 11 1016.7 1016.7 5.2
20/05:00pm 8.9 5.2 6.3 84 1.2 WSW 15 22 8 12 1015.7 1015.7 2.4
20/04:30pm 9.4 6.4 5.9 79 1.6 NNE 11 17 6 9 1014.1 1014.1 1.4
20/04:00pm 9.8 6.4 6.0 77 1.8 N 13 15 7 8 1014.4 1014.4 0.6
20/03:30pm 11.2 5.8 4.7 64 3.0 NE 22 32 12 17 1014.1 1014.1 0.0
20/03:00pm 12.5 6.3 4.2 57 3.8 NNE 26 32 14 17 1014.6 1014.6 0.0
20/02:30pm 13.1 8.2 5.3 59 3.6 NE 20 28 11 15 1015.7 1015.7 0.0
20/02:00pm 11.9 6.9 4.4 60 3.4 NNE 20 28 11 15 1016.9 1016.9 0.0
20/01:30pm 12.0 4.5 3.5 56 3.8 NE 32 41 17 22 1016.6 1016.6 0.0
20/01:08pm 12.2 4.8 4.2 58 3.6 NE 32 50 17 27 1017.0 1017.0 0.0
20/01:00pm 12.1 4.7 3.9 57 3.7 NE 32 44 17 24 1017.4 1017.4 0.0
20/12:30pm 12.3 4.9 4.0 57 3.7 NNE 32 48 17 26 1018.8 1018.9 0.0
20/12:00pm 12.7 5.8 4.4 57 3.8 NNE 30 37 16 20 1020.2 1020.3 0.0
20/11:30am 13.3 5.3 3.7 52 4.3 NNE 35 48 19 26 1020.9 1021.0 0.0
20/11:00am 13.1 5.0 3.5 52 4.3 NE 35 46 19 25 1021.3 1021.4 0.0
20/10:30am 12.2 3.3 2.9 53 4.1 NE 39 50 21 27 1021.5 1021.6 0.0
20/10:00am 12.0 4.5 3.5 56 3.8 NE 32 41 17 22 1021.9 1022.0 0.0
20/09:30am 11.1 4.0 3.4 59 3.4 NE 30 43 16 23 1022.6 1022.7 0.0
20/09:00am 9.9 2.8 3.4 64 2.8 NE 30 39 16 21 1022.7 1022.8 0.2
20/08:30am 8.5 2.1 3.4 70 2.2 NE 26 35 14 19 1023.0 1023.1 0.2
20/08:00am 7.2 0.7 2.9 74 1.8 NE 26 35 14 19 1023.0 1023.1 0.2
20/07:30am 6.3 0.6 2.9 79 1.4 NE 22 30 12 16 1023.3 1023.4 0.2
20/07:00am 5.9 0.2 2.7 80 1.3 NE 22 30 12 16 1023.3 1023.4 0.2
20/06:30am 5.2 -0.2 2.4 82 1.1 NE 20 30 11 16 1023.5 1023.6 0.2
20/06:00am 5.0 -0.8 2.4 83 1.0 NE 22 30 12 16 1023.4 1023.5 0.2
20/05:30am 4.0 -1.5 1.9 86 0.8 NE 20 26 11 14 1023.4 1023.5 0.2
20/05:00am 3.7 -1.6 1.6 86 0.8 ENE 19 22 10 12 1023.8 1023.9 0.2
20/04:30am 3.5 -1.5 1.5 87 0.8 ENE 17 22 9 12 1024.0 1024.1 0.2
20/04:00am 3.6 -1.4 1.6 87 0.8 ENE 17 20 9 11 1024.2 1024.3 0.0
20/03:30am 3.5 -1.5 1.5 87 0.8 NE 17 20 9 11 1024.5 1024.6 0.0
20/03:00am 4.0 -1.5 2.0 87 0.8 NE 20 26 11 14 1024.2 1024.3 0.0
20/02:30am 3.7 -1.2 1.9 88 0.7 ENE 17 20 9 11 1024.9 1025.0 0.0
20/02:00am 4.3 -0.5 2.5 88 0.7 NE 17 20 9 11 1025.1 1025.2 0.0
20/01:30am 4.0 -0.5 2.4 89 0.6 NE 15 19 8 10 1025.4 1025.5 0.0
20/01:00am 4.4 0.0 2.6 88 0.7 ENE 15 17 8 9 1025.6 1025.7 0.0
20/12:30am 4.6 0.6 2.9 89 0.7 ENE 13 17 7 9 1025.8 1025.9 0.0
20/12:00am 4.4 0.0 2.8 89 0.6 ENE 15 17 8 9 1026.0 1026.1 0.0
 
Date/Time
CST
Temp
°C
App
Temp
°C
Dew
Point
°C
Rel
Hum
%
Delta-T
°C
Wind Press
QNH
hPa
Press
MSL
hPa
Rain since
9am
mm
Dir  Spd
km/h
Gust
km/h
Spd
kts
Gust
kts
19/11:30pm 4.3 0.3 2.8 90 0.6 ENE 13 17 7 9 1026.4 1026.5 0.0
19/11:00pm 3.2 -0.6 1.7 90 0.6 ENE 11 13 6 7 1026.7 1026.8 0.0
19/10:30pm 3.0 -0.1 1.5 90 0.6 NE 7 11 4 6 1026.8 1026.9 0.0
19/10:00pm 3.3 -0.1 2.0 91 0.5 ENE 9 11 5 6 1026.8 1026.9 0.0
19/09:30pm 2.9 -1.0 1.4 90 0.6 ENE 11 13 6 7 1026.9 1027.0 0.0
19/09:00pm 3.0 -0.8 1.5 90 0.6 ENE 11 13 6 7 1027.1 1027.2 0.0
19/08:30pm 3.3 0.3 1.7 89 0.6 ENE 7 9 4 5 1027.2 1027.3 0.0

Other Formats:

Comma delimited format used in spreadsheet applications
http://www.bom.gov.au/fwo/IDS60801/IDS60801.95671.axf

JavaScript Object Notation format (JSON) in row-major order
http://www.bom.gov.au/fwo/IDS60801/IDS60801.95671.json